Mehmet Bey — 9HUD6 — position and weather

sailwx.info

Track history (hours):
 
Tides and Currents Weather Stations Pressure Air Temp Water Temp Dewpoint Dewpoint Depression Visibility Wind Speed Wind Dir Waves Ship Positions

Mehmet Bey

Last reported at 2017-Jun-23 19:22 UTC. Time now 2017-Jun-25 09:05 UTC.
Position N 46°24' E 031°02'.

Length 131 m; draft 5.2 m.

Type: Cargo ship. MMSI: 248864000.

Date/timePositionNaut miles runAvg speedWind from/ knotsBaromVisibWave heightAir tempDewpointWater temp
2017-Jun-23 19:22N 46°24' E 031°02'0 0.0
2017-Jun-23 18:58N 46°24' E 031°02'0 0.0
2017-Jun-23 16:46N 46°24' E 031°02'0 0.0
2017-Jun-23 04:56N 46°24' E 031°02'0 0.0
2017-Jun-23 04:20N 46°24' E 031°02'0 0.0
2017-Jun-23 03:56N 46°24' E 031°02'  
2017-Jun-17 03:05N 37°29' E 020°44'61 9.2
2017-Jun-16 20:27N 38°22' E 020°06'4 8.7
2017-Jun-16 19:57N 38°26' E 020°03'4 8.8
2017-Jun-16 19:29N 38°29' E 020°01'4 8.8
2017-Jun-16 19:00N 38°33' E 019°58'4 8.8
2017-Jun-16 18:30N 38°37' E 019°55'6 8.9
2017-Jun-16 17:50N 38°42' E 019°51'3 9.0
2017-Jun-16 17:30N 38°44' E 019°49'5 9.1
2017-Jun-16 17:00N 38°48' E 019°46'403 9.0
2017-Jun-14 20:05N 43°51' E 013°53'1 8.7
2017-Jun-14 20:00N 43°52' E 013°53'23 8.4
2017-Jun-14 17:17N 44°04' E 013°26'3 8.5
2017-Jun-14 16:56N 44°06' E 013°22'4 8.2
2017-Jun-14 16:29N 44°08' E 013°18'4 8.1
2017-Jun-14 16:00N 44°11' E 013°14'4 8.1
2017-Jun-14 15:30N 44°14' E 013°11'13 8.4
2017-Jun-14 14:00N 44°20' E 012°56'12 8.8
2017-Jun-14 12:35N 44°25' E 012°40'1 8.9
2017-Jun-14 12:30N 44°26' E 012°39'16 8.4
2017-Jun-14 10:37N 44°30' E 012°17'1 6.8
2017-Jun-14 10:30N 44°29' E 012°16'  
Track history (hours):
 
Tides and Currents Weather Stations Pressure Air Temp Water Temp Dewpoint Dewpoint Depression Visibility Wind Speed Wind Dir Waves Ship Positions

Mehmet Bey

Last reported at 2017-Jun-23 19:22 UTC. Time now 2017-Jun-25 09:05 UTC.
Position N 46°24' E 031°02'.

Length 131 m; draft 5.2 m.

Type: Cargo ship. MMSI: 248864000.

Date/timePositionNaut miles runAvg speedWind from/ knotsBaromVisibWave heightAir tempDewpointWater temp
2017-Jun-23 19:22N 46°24' E 031°02'0 0.0
2017-Jun-23 18:58N 46°24' E 031°02'0 0.0
2017-Jun-23 16:46N 46°24' E 031°02'0 0.0
2017-Jun-23 04:56N 46°24' E 031°02'0 0.0
2017-Jun-23 04:20N 46°24' E 031°02'0 0.0
2017-Jun-23 03:56N 46°24' E 031°02'  
2017-Jun-17 03:05N 37°29' E 020°44'61 9.2
2017-Jun-16 20:27N 38°22' E 020°06'4 8.7
2017-Jun-16 19:57N 38°26' E 020°03'4 8.8
2017-Jun-16 19:29N 38°29' E 020°01'4 8.8
2017-Jun-16 19:00N 38°33' E 019°58'4 8.8
2017-Jun-16 18:30N 38°37' E 019°55'6 8.9
2017-Jun-16 17:50N 38°42' E 019°51'3 9.0
2017-Jun-16 17:30N 38°44' E 019°49'5 9.1
2017-Jun-16 17:00N 38°48' E 019°46'403 9.0
2017-Jun-14 20:05N 43°51' E 013°53'1 8.7
2017-Jun-14 20:00N 43°52' E 013°53'23 8.4
2017-Jun-14 17:17N 44°04' E 013°26'3 8.5
2017-Jun-14 16:56N 44°06' E 013°22'4 8.2
2017-Jun-14 16:29N 44°08' E 013°18'4 8.1
2017-Jun-14 16:00N 44°11' E 013°14'4 8.1
2017-Jun-14 15:30N 44°14' E 013°11'13 8.4
2017-Jun-14 14:00N 44°20' E 012°56'12 8.8
2017-Jun-14 12:35N 44°25' E 012°40'1 8.9
2017-Jun-14 12:30N 44°26' E 012°39'16 8.4
2017-Jun-14 10:37N 44°30' E 012°17'1 6.8
2017-Jun-14 10:30N 44°29' E 012°16'  

Dump ship's entire track history